sensor_id;sensor_type;location;lat;lon;timestamp;pressure;altitude;pressure_sealevel;temperature;humidity
22283;BME280;11310;51.528;21.204;2024-02-16T00:01:57;100672.88;;;6.14;100.00
22283;BME280;11310;51.528;21.204;2024-02-16T00:04:25;100671.97;;;6.15;100.00
22283;BME280;11310;51.528;21.204;2024-02-16T00:07:03;100677.09;;;6.21;100.00
22283;BME280;11310;51.528;21.204;2024-02-16T00:09:36;100668.34;;;6.25;100.00
22283;BME280;11310;51.528;21.204;2024-02-16T00:12:06;100669.16;;;6.27;100.00
22283;BME280;11310;51.528;21.204;2024-02-16T00:14:39;100662.25;;;6.24;100.00
22283;BME280;11310;51.528;21.204;2024-02-16T00:17:12;100668.25;;;6.28;100.00
22283;BME280;11310;51.528;21.204;2024-02-16T00:19:41;100671.72;;;6.30;100.00
22283;BME280;11310;51.528;21.204;2024-02-16T00:22:09;100668.16;;;6.34;100.00
22283;BME280;11310;51.528;21.204;2024-02-16T00:24:38;100671.59;;;6.36;100.00
22283;BME280;11310;51.528;21.204;2024-02-16T00:27:06;100671.53;;;6.39;100.00
22283;BME280;11310;51.528;21.204;2024-02-16T00:29:36;100670.66;;;6.40;100.00
22283;BME280;11310;51.528;21.204;2024-02-16T00:32:05;100668.88;;;6.42;100.00
22283;BME280;11310;51.528;21.204;2024-02-16T00:34:40;100661.88;;;6.45;100.00
22283;BME280;11310;51.528;21.204;2024-02-16T00:37:08;100665.31;;;6.46;100.00
22283;BME280;11310;51.528;21.204;2024-02-16T00:39:42;100664.41;;;6.47;100.00
22283;BME280;11310;51.528;21.204;2024-02-16T00:42:11;100662.66;;;6.49;100.00
22283;BME280;11310;51.528;21.204;2024-02-16T00:44:41;100659.16;;;6.50;100.00
22283;BME280;11310;51.528;21.204;2024-02-16T00:47:12;100655.66;;;6.51;100.00
22283;BME280;11310;51.528;21.204;2024-02-16T00:49:43;100659.16;;;6.50;100.00
22283;BME280;11310;51.528;21.204;2024-02-16T00:52:12;100660.88;;;6.51;100.00
22283;BME280;11310;51.528;21.204;2024-02-16T00:54:41;100660.00;;;6.52;100.00
22283;BME280;11310;51.528;21.204;2024-02-16T00:57:17;100653.94;;;6.50;100.00
22283;BME280;11310;51.528;21.204;2024-02-16T00:59:47;100658.28;;;6.49;100.00
22283;BME280;11310;51.528;21.204;2024-02-16T01:02:16;100660.88;;;6.51;100.00
22283;BME280;11310;51.528;21.204;2024-02-16T01:04:46;100660.84;;;6.52;100.00
22283;BME280;11310;51.528;21.204;2024-02-16T01:07:14;100657.41;;;6.52;100.00
22283;BME280;11310;51.528;21.204;2024-02-16T01:09:43;100653.91;;;6.53;100.00
22283;BME280;11310;51.528;21.204;2024-02-16T01:12:15;100649.56;;;6.52;100.00
22283;BME280;11310;51.528;21.204;2024-02-16T01:14:44;100645.22;;;6.51;100.00
22283;BME280;11310;51.528;21.204;2024-02-16T01:17:17;100646.13;;;6.50;100.00
22283;BME280;11310;51.528;21.204;2024-02-16T01:19:46;100633.16;;;6.47;100.00
22283;BME280;11310;51.528;21.204;2024-02-16T01:22:17;100642.75;;;6.45;100.00
22283;BME280;11310;51.528;21.204;2024-02-16T01:24:49;100629.94;;;6.34;100.00
22283;BME280;11310;51.528;21.204;2024-02-16T01:27:17;100641.28;;;6.30;100.00
22283;BME280;11310;51.528;21.204;2024-02-16T01:29:46;100637.06;;;6.25;100.00
22283;BME280;11310;51.528;21.204;2024-02-16T01:32:21;100641.53;;;6.18;100.00
22283;BME280;11310;51.528;21.204;2024-02-16T01:34:50;100635.59;;;6.12;100.00
22283;BME280;11310;51.528;21.204;2024-02-16T01:37:19;100639.13;;;6.08;100.00
22283;BME280;11310;51.528;21.204;2024-02-16T01:39:48;100628.81;;;6.02;100.00
22283;BME280;11310;51.528;21.204;2024-02-16T01:42:18;100627.22;;;5.95;100.00
22283;BME280;11310;51.528;21.204;2024-02-16T01:44:49;100629.09;;;5.85;100.00
22283;BME280;11310;51.528;21.204;2024-02-16T01:47:19;100625.75;;;5.79;100.00
22283;BME280;11310;51.528;21.204;2024-02-16T01:49:52;100622.25;;;5.80;100.00
22283;BME280;11310;51.528;21.204;2024-02-16T01:52:25;100617.03;;;5.80;100.00
22283;BME280;11310;51.528;21.204;2024-02-16T01:54:54;100623.09;;;5.82;100.00
22283;BME280;11310;51.528;21.204;2024-02-16T01:57:23;100620.44;;;5.85;100.00
22283;BME280;11310;51.528;21.204;2024-02-16T01:59:55;100617.81;;;5.88;100.00
22283;BME280;11310;51.528;21.204;2024-02-16T02:02:27;100618.63;;;5.90;100.00
22283;BME280;11310;51.528;21.204;2024-02-16T02:04:57;100616.78;;;5.95;100.00
22283;BME280;11310;51.528;21.204;2024-02-16T02:07:26;100609.88;;;5.94;100.00
22283;BME280;11310;51.528;21.204;2024-02-16T02:09:55;100615.88;;;5.97;100.00
22283;BME280;11310;51.528;21.204;2024-02-16T02:12:24;100613.25;;;5.99;100.00
22283;BME280;11310;51.528;21.204;2024-02-16T02:14:53;100613.25;;;5.99;100.00
22283;BME280;11310;51.528;21.204;2024-02-16T02:17:21;100614.06;;;6.01;100.00
22283;BME280;11310;51.528;21.204;2024-02-16T02:19:50;100613.19;;;6.02;100.00
22283;BME280;11310;51.528;21.204;2024-02-16T02:22:23;100610.53;;;6.03;100.00
22283;BME280;11310;51.528;21.204;2024-02-16T02:24:56;100607.91;;;6.05;100.00
22283;BME280;11310;51.528;21.204;2024-02-16T02:27:27;100606.16;;;6.07;100.00
22283;BME280;11310;51.528;21.204;2024-02-16T02:29:56;100606.97;;;6.09;100.00
22283;BME280;11310;51.528;21.204;2024-02-16T02:32:26;100605.22;;;6.11;100.00
22283;BME280;11310;51.528;21.204;2024-02-16T02:35:02;100602.63;;;6.11;100.00
22283;BME280;11310;51.528;21.204;2024-02-16T02:37:32;100606.97;;;6.10;100.00
22283;BME280;11310;51.528;21.204;2024-02-16T02:40:03;100607.78;;;6.12;100.00
22283;BME280;11310;51.528;21.204;2024-02-16T02:42:35;100605.16;;;6.12;100.00
22283;BME280;11310;51.528;21.204;2024-02-16T02:45:09;100607.75;;;6.14;100.00
22283;BME280;11310;51.528;21.204;2024-02-16T02:47:38;100608.63;;;6.14;100.00
22283;BME280;11310;51.528;21.204;2024-02-16T02:50:07;100603.41;;;6.14;100.00
22283;BME280;11310;51.528;21.204;2024-02-16T02:52:37;100604.19;;;6.18;100.00
22283;BME280;11310;51.528;21.204;2024-02-16T02:55:08;100605.06;;;6.18;100.00
22283;BME280;11310;51.528;21.204;2024-02-16T02:57:42;100608.53;;;6.17;100.00
22283;BME280;11310;51.528;21.204;2024-02-16T03:00:13;100609.38;;;6.21;100.00
22283;BME280;11310;51.528;21.204;2024-02-16T03:02:52;100616.28;;;6.22;100.00
22283;BME280;11310;51.528;21.204;2024-02-16T03:05:21;100605.88;;;6.20;100.00
22283;BME280;11310;51.528;21.204;2024-02-16T03:07:53;100610.19;;;6.21;100.00
22283;BME280;11310;51.528;21.204;2024-02-16T03:10:22;100614.56;;;6.22;100.00
22283;BME280;11310;51.528;21.204;2024-02-16T03:13:03;100613.66;;;6.23;100.00
22283;BME280;11310;51.528;21.204;2024-02-16T03:15:34;100607.59;;;6.21;100.00
22283;BME280;11310;51.528;21.204;2024-02-16T03:18:03;100609.28;;;6.24;100.00
22283;BME280;11310;51.528;21.204;2024-02-16T03:20:32;100604.03;;;6.25;100.00
22283;BME280;11310;51.528;21.204;2024-02-16T03:23:03;100591.91;;;6.24;100.00
22283;BME280;11310;51.528;21.204;2024-02-16T03:25:31;100594.56;;;6.21;100.00
22283;BME280;11310;51.528;21.204;2024-02-16T03:28:00;100595.50;;;6.17;100.00
22283;BME280;11310;51.528;21.204;2024-02-16T03:30:29;100602.50;;;6.17;100.00
22283;BME280;11310;51.528;21.204;2024-02-16T03:32:57;100599.13;;;6.12;100.00
22283;BME280;11310;51.528;21.204;2024-02-16T03:35:30;100604.31;;;6.12;100.00
22283;BME280;11310;51.528;21.204;2024-02-16T03:37:59;100606.09;;;6.10;100.00
22283;BME280;11310;51.528;21.204;2024-02-16T03:40:29;100596.59;;;6.06;100.00
22283;BME280;11310;51.528;21.204;2024-02-16T03:42:58;100597.59;;;6.02;100.00
22283;BME280;11310;51.528;21.204;2024-02-16T03:45:26;100597.66;;;5.96;100.00
22283;BME280;11310;51.528;21.204;2024-02-16T03:47:56;100597.78;;;5.90;100.00
22283;BME280;11310;51.528;21.204;2024-02-16T03:50:24;100603.03;;;5.88;100.00
22283;BME280;11310;51.528;21.204;2024-02-16T03:52:53;100599.66;;;5.82;100.00
22283;BME280;11310;51.528;21.204;2024-02-16T03:55:22;100608.44;;;5.75;100.00
22283;BME280;11310;51.528;21.204;2024-02-16T03:57:52;100604.25;;;5.66;100.00
22283;BME280;11310;51.528;21.204;2024-02-16T04:00:20;100606.09;;;5.60;100.00
22283;BME280;11310;51.528;21.204;2024-02-16T04:02:53;100608.88;;;5.49;100.00
22283;BME280;11310;51.528;21.204;2024-02-16T04:05:25;100608.97;;;5.42;100.00
22283;BME280;11310;51.528;21.204;2024-02-16T04:07:58;100606.50;;;5.36;100.00
22283;BME280;11310;51.528;21.204;2024-02-16T04:10:32;100603.06;;;5.35;100.00
22283;BME280;11310;51.528;21.204;2024-02-16T04:13:02;100597.84;;;5.35;100.00
22283;BME280;11310;51.528;21.204;2024-02-16T04:15:31;100603.06;;;5.34;100.00
22283;BME280;11310;51.528;21.204;2024-02-16T04:18:03;100599.69;;;5.27;100.00
22283;BME280;11310;51.528;21.204;2024-02-16T04:20:31;100604.09;;;5.24;100.00
22283;BME280;11310;51.528;21.204;2024-02-16T04:23:00;100597.25;;;5.17;100.00
22283;BME280;11310;51.528;21.204;2024-02-16T04:25:32;100595.63;;;5.10;100.00
22283;BME280;11310;51.528;21.204;2024-02-16T04:28:02;100595.72;;;5.04;100.00
22283;BME280;11310;51.528;21.204;2024-02-16T04:30:31;100600.13;;;4.99;100.00
22283;BME280;11310;51.528;21.204;2024-02-16T04:33:03;100597.69;;;4.87;100.00
22283;BME280;11310;51.528;21.204;2024-02-16T04:35:34;100597.91;;;4.72;100.00
22283;BME280;11310;51.528;21.204;2024-02-16T04:38:06;100595.44;;;4.63;100.00
22283;BME280;11310;51.528;21.204;2024-02-16T04:40:37;100591.22;;;4.56;100.00
22283;BME280;11310;51.528;21.204;2024-02-16T04:43:07;100602.50;;;4.52;100.00
22283;BME280;11310;51.528;21.204;2024-02-16T04:45:35;100596.53;;;4.47;100.00
22283;BME280;11310;51.528;21.204;2024-02-16T04:48:04;100594.84;;;4.40;100.00
22283;BME280;11310;51.528;21.204;2024-02-16T04:50:33;100595.84;;;4.31;100.00
22283;BME280;11310;51.528;21.204;2024-02-16T04:53:03;100601.16;;;4.19;100.00
22283;BME280;11310;51.528;21.204;2024-02-16T04:55:35;100599.47;;;4.14;100.00
22283;BME280;11310;51.528;21.204;2024-02-16T04:58:03;100600.44;;;4.07;100.00
22283;BME280;11310;51.528;21.204;2024-02-16T05:00:38;100596.06;;;4.10;100.00
22283;BME280;11310;51.528;21.204;2024-02-16T05:03:07;100605.63;;;4.08;100.00
22283;BME280;11310;51.528;21.204;2024-02-16T05:05:36;100608.22;;;4.07;100.00
22283;BME280;11310;51.528;21.204;2024-02-16T05:08:06;100603.91;;;4.06;100.00
22283;BME280;11310;51.528;21.204;2024-02-16T05:10:38;100607.34;;;4.08;100.00
22283;BME280;11310;51.528;21.204;2024-02-16T05:13:09;100600.38;;;4.13;100.00
22283;BME280;11310;51.528;21.204;2024-02-16T05:15:39;100593.38;;;4.18;100.00
22283;BME280;11310;51.528;21.204;2024-02-16T05:18:09;100593.34;;;4.24;100.00
22283;BME280;11310;51.528;21.204;2024-02-16T05:20:45;100605.41;;;4.28;100.00
22283;BME280;11310;51.528;21.204;2024-02-16T05:23:16;100597.63;;;4.28;100.00
22283;BME280;11310;51.528;21.204;2024-02-16T05:25:45;100598.47;;;4.27;100.00
22283;BME280;11310;51.528;21.204;2024-02-16T05:28:14;100607.16;;;4.23;100.00
22283;BME280;11310;51.528;21.204;2024-02-16T05:30:44;100592.56;;;4.16;100.00
22283;BME280;11310;51.528;21.204;2024-02-16T05:33:14;100609.84;;;4.17;100.00
22283;BME280;11310;51.528;21.204;2024-02-16T05:35:43;100608.16;;;4.14;100.00
22283;BME280;11310;51.528;21.204;2024-02-16T05:38:19;100610.75;;;4.11;100.00
22283;BME280;11310;51.528;21.204;2024-02-16T05:40:59;100604.75;;;4.06;100.00
22283;BME280;11310;51.528;21.204;2024-02-16T05:43:28;100610.84;;;4.04;100.00
22283;BME280;11310;51.528;21.204;2024-02-16T05:45:58;100615.19;;;4.03;100.00
22283;BME280;11310;51.528;21.204;2024-02-16T05:48:26;100614.34;;;4.00;100.00
22283;BME280;11310;51.528;21.204;2024-02-16T05:51:00;100616.19;;;3.92;100.00
22283;BME280;11310;51.528;21.204;2024-02-16T05:53:31;100617.91;;;3.90;100.00
22283;BME280;11310;51.528;21.204;2024-02-16T05:56:01;100624.88;;;3.88;100.00
22283;BME280;11310;51.528;21.204;2024-02-16T05:58:29;100624.88;;;3.88;100.00
22283;BME280;11310;51.528;21.204;2024-02-16T06:01:00;100628.38;;;3.81;100.00
22283;BME280;11310;51.528;21.204;2024-02-16T06:03:29;100625.84;;;3.76;100.00
22283;BME280;11310;51.528;21.204;2024-02-16T06:06:01;100627.56;;;3.76;100.00
22283;BME280;11310;51.528;21.204;2024-02-16T06:08:30;100631.03;;;3.73;100.00
22283;BME280;11310;51.528;21.204;2024-02-16T06:10:59;100639.72;;;3.72;100.00
22283;BME280;11310;51.528;21.204;2024-02-16T06:13:31;100633.66;;;3.72;100.00
22283;BME280;11310;51.528;21.204;2024-02-16T06:16:04;100637.13;;;3.71;100.00
22283;BME280;11310;51.528;21.204;2024-02-16T06:18:38;100640.63;;;3.67;100.00
22283;BME280;11310;51.528;21.204;2024-02-16T06:21:07;100638.91;;;3.66;100.00
22283;BME280;11310;51.528;21.204;2024-02-16T06:23:37;100644.09;;;3.63;100.00
22283;BME280;11310;51.528;21.204;2024-02-16T06:26:06;100644.09;;;3.63;100.00
22283;BME280;11310;51.528;21.204;2024-02-16T06:28:35;100647.56;;;3.66;100.00
22283;BME280;11310;51.528;21.204;2024-02-16T06:31:08;100644.97;;;3.65;100.00
22283;BME280;11310;51.528;21.204;2024-02-16T06:33:39;100650.16;;;3.66;100.00
22283;BME280;11310;51.528;21.204;2024-02-16T06:36:08;100651.88;;;3.66;100.00
22283;BME280;11310;51.528;21.204;2024-02-16T06:38:38;100654.44;;;3.69;100.00
22283;BME280;11310;51.528;21.204;2024-02-16T06:41:09;100651.81;;;3.73;100.00
22283;BME280;11310;51.528;21.204;2024-02-16T06:43:37;100656.09;;;3.79;100.00
22283;BME280;11310;51.528;21.204;2024-02-16T06:46:08;100655.19;;;3.81;100.00
22283;BME280;11310;51.528;21.204;2024-02-16T06:48:36;100648.25;;;3.83;100.00
22283;BME280;11310;51.528;21.204;2024-02-16T06:51:05;100656.84;;;3.91;100.00
22283;BME280;11310;51.528;21.204;2024-02-16T06:53:37;100654.22;;;3.91;100.00
22283;BME280;11310;51.528;21.204;2024-02-16T06:56:09;100657.72;;;3.92;100.00
22283;BME280;11310;51.528;21.204;2024-02-16T06:58:39;100651.63;;;3.93;100.00
22283;BME280;11310;51.528;21.204;2024-02-16T07:01:10;100654.22;;;3.94;100.00
22283;BME280;11310;51.528;21.204;2024-02-16T07:03:39;100649.88;;;3.95;100.00
22283;BME280;11310;51.528;21.204;2024-02-16T07:06:09;100639.50;;;3.93;100.00
22283;BME280;11310;51.528;21.204;2024-02-16T07:08:41;100646.38;;;3.97;100.00
22283;BME280;11310;51.528;21.204;2024-02-16T07:11:11;100636.00;;;3.99;100.00
22283;BME280;11310;51.528;21.204;2024-02-16T07:13:41;100640.25;;;4.06;100.00
22283;BME280;11310;51.528;21.204;2024-02-16T07:16:13;100647.09;;;4.11;100.00
22283;BME280;11310;51.528;21.204;2024-02-16T07:18:42;100650.41;;;4.28;100.00
22283;BME280;11310;51.528;21.204;2024-02-16T07:21:11;100650.19;;;4.45;100.00
22283;BME280;11310;51.528;21.204;2024-02-16T07:23:39;100653.69;;;4.42;100.00
22283;BME280;11310;51.528;21.204;2024-02-16T07:26:10;100642.47;;;4.42;100.00
22283;BME280;11310;51.528;21.204;2024-02-16T07:28:43;100656.25;;;4.48;100.00
22283;BME280;11310;51.528;21.204;2024-02-16T07:31:14;100658.75;;;4.56;100.00
22283;BME280;11310;51.528;21.204;2024-02-16T07:33:47;100655.19;;;4.61;100.00
22283;BME280;11310;51.528;21.204;2024-02-16T07:36:16;100655.03;;;4.76;100.00
22283;BME280;11310;51.528;21.204;2024-02-16T07:38:47;100648.84;;;4.86;100.00
22283;BME280;11310;51.528;21.204;2024-02-16T07:41:16;100652.16;;;4.96;100.00
22283;BME280;11310;51.528;21.204;2024-02-16T07:43:48;100652.13;;;4.99;100.00
22283;BME280;11310;51.528;21.204;2024-02-16T07:46:20;100651.19;;;5.04;100.00
22283;BME280;11310;51.528;21.204;2024-02-16T07:48:54;100641.59;;;5.09;100.00
22283;BME280;11310;51.528;21.204;2024-02-16T07:51:24;100651.78;;;5.23;100.00
22283;BME280;11310;51.528;21.204;2024-02-16T07:53:57;100646.44;;;5.32;100.00
22283;BME280;11310;51.528;21.204;2024-02-16T07:56:26;100645.50;;;5.36;100.00
22283;BME280;11310;51.528;21.204;2024-02-16T07:58:55;100648.91;;;5.41;100.00
22283;BME280;11310;51.528;21.204;2024-02-16T08:01:25;100643.63;;;5.47;100.00
22283;BME280;11310;51.528;21.204;2024-02-16T08:03:54;100643.56;;;5.50;100.00
22283;BME280;11310;51.528;21.204;2024-02-16T08:06:30;100648.69;;;5.56;100.00
22283;BME280;11310;51.528;21.204;2024-02-16T08:09:03;100643.47;;;5.56;100.00
22283;BME280;11310;51.528;21.204;2024-02-16T08:11:42;100644.13;;;5.68;100.00
22283;BME280;11310;51.528;21.204;2024-02-16T08:14:14;100649.97;;;5.84;100.00
22283;BME280;11310;51.528;21.204;2024-02-16T08:16:45;100649.72;;;5.97;100.00
22283;BME280;11310;51.528;21.204;2024-02-16T08:19:14;100645.16;;;6.10;100.00
22283;BME280;11310;51.528;21.204;2024-02-16T08:21:44;100646.66;;;6.21;100.00
22283;BME280;11310;51.528;21.204;2024-02-16T08:24:17;100633.56;;;6.27;100.00
22283;BME280;11310;51.528;21.204;2024-02-16T08:26:52;100647.25;;;6.37;100.00
22283;BME280;11310;51.528;21.204;2024-02-16T08:29:22;100642.81;;;6.42;100.00
22283;BME280;11310;51.528;21.204;2024-02-16T08:31:52;100650.53;;;6.48;100.00
22283;BME280;11310;51.528;21.204;2024-02-16T08:34:22;100636.50;;;6.53;100.00
22283;BME280;11310;51.528;21.204;2024-02-16T08:36:53;100644.16;;;6.61;100.00
22283;BME280;11310;51.528;21.204;2024-02-16T08:39:22;100637.94;;;6.68;100.00
22283;BME280;11310;51.528;21.204;2024-02-16T08:41:53;100635.16;;;6.77;100.00
22283;BME280;11310;51.528;21.204;2024-02-16T08:44:27;100641.72;;;6.93;100.00
22283;BME280;11310;51.528;21.204;2024-02-16T08:46:58;100627.50;;;7.07;100.00
22283;BME280;11310;51.528;21.204;2024-02-16T08:49:36;100638.63;;;7.15;100.00
22283;BME280;11310;51.528;21.204;2024-02-16T08:52:09;100642.59;;;7.31;100.00
22283;BME280;11310;51.528;21.204;2024-02-16T08:54:40;100640.75;;;8.06;100.00
22283;BME280;11310;51.528;21.204;2024-02-16T08:57:24;100626.41;;;9.11;98.14
22283;BME280;11310;51.528;21.204;2024-02-16T08:59:56;100637.56;;;9.45;96.31
22283;BME280;11310;51.528;21.204;2024-02-16T09:02:26;100635.22;;;9.63;94.36
22283;BME280;11310;51.528;21.204;2024-02-16T09:05:07;100610.78;;;9.37;97.35
22283;BME280;11310;51.528;21.204;2024-02-16T09:07:41;100629.28;;;9.03;99.40
22283;BME280;11310;51.528;21.204;2024-02-16T09:10:16;100633.69;;;8.72;100.00
22283;BME280;11310;51.528;21.204;2024-02-16T09:13:02;100624.34;;;8.64;100.00
22283;BME280;11310;51.528;21.204;2024-02-16T09:15:43;100624.63;;;8.55;100.00
22283;BME280;11310;51.528;21.204;2024-02-16T09:18:17;100609.03;;;8.50;100.00
22283;BME280;11310;51.528;21.204;2024-02-16T09:20:47;100612.44;;;9.39;100.00
22283;BME280;11310;51.528;21.204;2024-02-16T09:23:17;100635.31;;;10.12;97.74
22283;BME280;11310;51.528;21.204;2024-02-16T09:25:45;100620.84;;;9.75;99.05
22283;BME280;11310;51.528;21.204;2024-02-16T09:28:15;100636.53;;;9.49;100.00
22283;BME280;11310;51.528;21.204;2024-02-16T09:31:00;100634.72;;;9.25;100.00
22283;BME280;11310;51.528;21.204;2024-02-16T09:33:36;100634.72;;;9.25;100.00
22283;BME280;11310;51.528;21.204;2024-02-16T09:36:11;100626.78;;;9.28;100.00
22283;BME280;11310;51.528;21.204;2024-02-16T09:38:42;100631.09;;;9.29;100.00
22283;BME280;11310;51.528;21.204;2024-02-16T09:41:15;100632.81;;;9.30;100.00
22283;BME280;11310;51.528;21.204;2024-02-16T09:43:44;100646.03;;;9.53;100.00
22283;BME280;11310;51.528;21.204;2024-02-16T09:46:13;100631.13;;;11.02;95.99
22283;BME280;11310;51.528;21.204;2024-02-16T09:48:46;100644.31;;;13.96;83.06
22283;BME280;11310;51.528;21.204;2024-02-16T09:51:21;100637.03;;;16.23;70.78
22283;BME280;11310;51.528;21.204;2024-02-16T09:53:51;100648.88;;;16.02;71.21
22283;BME280;11310;51.528;21.204;2024-02-16T09:56:25;100640.16;;;16.29;71.30
22283;BME280;11310;51.528;21.204;2024-02-16T09:58:55;100640.09;;;16.01;72.46
22283;BME280;11310;51.528;21.204;2024-02-16T10:01:31;100622.28;;;16.90;69.13
22283;BME280;11310;51.528;21.204;2024-02-16T10:04:11;100642.25;;;16.68;70.28
22283;BME280;11310;51.528;21.204;2024-02-16T10:06:59;100647.53;;;15.02;67.97
22283;BME280;11310;51.528;21.204;2024-02-16T10:09:40;100648.59;;;15.77;78.10
22283;BME280;11310;51.528;21.204;2024-02-16T10:12:18;100643.09;;;16.96;71.01
22283;BME280;11310;51.528;21.204;2024-02-16T10:15:01;100654.25;;;16.45;71.16
22283;BME280;11310;51.528;21.204;2024-02-16T10:17:32;100643.00;;;17.12;72.50
22283;BME280;11310;51.528;21.204;2024-02-16T10:20:17;100653.00;;;17.75;65.55
22283;BME280;11310;51.528;21.204;2024-02-16T10:23:01;100641.47;;;15.93;77.17
22283;BME280;11310;51.528;21.204;2024-02-16T10:25:41;100628.34;;;14.33;85.25
22283;BME280;11310;51.528;21.204;2024-02-16T10:28:10;100637.25;;;13.44;91.72
22283;BME280;11310;51.528;21.204;2024-02-16T10:30:42;100620.03;;;13.00;94.48
22283;BME280;11310;51.528;21.204;2024-02-16T10:33:12;100620.09;;;13.17;84.32
22283;BME280;11310;51.528;21.204;2024-02-16T10:35:43;100622.75;;;14.72;86.08
22283;BME280;11310;51.528;21.204;2024-02-16T10:38:19;100626.63;;;16.63;75.26
22283;BME280;11310;51.528;21.204;2024-02-16T10:40:53;100599.91;;;17.22;71.70
22283;BME280;11310;51.528;21.204;2024-02-16T10:43:32;100590.69;;;16.16;76.03
22283;BME280;11310;51.528;21.204;2024-02-16T10:46:13;100602.84;;;14.97;82.64
22283;BME280;11310;51.528;21.204;2024-02-16T10:49:18;100603.56;;;14.02;87.01
22283;BME280;11310;51.528;21.204;2024-02-16T10:51:53;100594.47;;;13.56;89.53
22283;BME280;11310;51.528;21.204;2024-02-16T10:54:31;100590.84;;;13.05;91.76
22283;BME280;11310;51.528;21.204;2024-02-16T10:57:10;100581.97;;;12.69;94.08
22283;BME280;11310;51.528;21.204;2024-02-16T10:59:44;100580.63;;;12.60;93.55
22283;BME280;11310;51.528;21.204;2024-02-16T11:02:17;100574.19;;;13.04;91.52
22283;BME280;11310;51.528;21.204;2024-02-16T11:04:52;100579.97;;;13.65;88.09
22283;BME280;11310;51.528;21.204;2024-02-16T11:07:24;100580.97;;;15.26;79.13
22283;BME280;11310;51.528;21.204;2024-02-16T11:09:59;100584.91;;;15.80;74.76
22283;BME280;11310;51.528;21.204;2024-02-16T11:12:33;100573.50;;;17.07;69.62
22283;BME280;11310;51.528;21.204;2024-02-16T11:15:04;100575.84;;;18.42;63.82
22283;BME280;11310;51.528;21.204;2024-02-16T11:17:38;100565.84;;;18.46;63.81
22283;BME280;11310;51.528;21.204;2024-02-16T11:20:09;100558.84;;;20.00;58.14
22283;BME280;11310;51.528;21.204;2024-02-16T11:22:42;100561.41;;;19.43;59.82
22283;BME280;11310;51.528;21.204;2024-02-16T11:25:30;100555.50;;;17.65;65.93
22283;BME280;11310;51.528;21.204;2024-02-16T11:28:02;100541.47;;;16.41;75.00
22283;BME280;11310;51.528;21.204;2024-02-16T11:30:33;100542.16;;;16.01;78.13
22283;BME280;11310;51.528;21.204;2024-02-16T11:33:03;100540.75;;;16.10;77.46
22283;BME280;11310;51.528;21.204;2024-02-16T11:35:36;100535.22;;;16.56;75.27
22283;BME280;11310;51.528;21.204;2024-02-16T11:38:08;100533.22;;;18.56;65.71
22283;BME280;11310;51.528;21.204;2024-02-16T11:40:41;100535.69;;;20.35;57.50
22283;BME280;11310;51.528;21.204;2024-02-16T11:43:22;100536.06;;;20.85;52.39
22283;BME280;11310;51.528;21.204;2024-02-16T11:45:52;100533.66;;;22.20;51.62
22283;BME280;11310;51.528;21.204;2024-02-16T11:48:22;100526.84;;;23.36;48.74
22283;BME280;11310;51.528;21.204;2024-02-16T11:50:59;100529.06;;;24.26;44.38
22283;BME280;11310;51.528;21.204;2024-02-16T11:53:37;100532.03;;;24.78;44.43
22283;BME280;11310;51.528;21.204;2024-02-16T11:56:07;100524.72;;;24.98;44.95
22283;BME280;11310;51.528;21.204;2024-02-16T11:58:36;100525.16;;;25.20;44.42
22283;BME280;11310;51.528;21.204;2024-02-16T12:01:10;100523.03;;;24.70;43.91
22283;BME280;11310;51.528;21.204;2024-02-16T12:03:41;100537.59;;;22.96;49.82
22283;BME280;11310;51.528;21.204;2024-02-16T12:06:19;100521.28;;;21.46;53.15
22283;BME280;11310;51.528;21.204;2024-02-16T12:08:55;100520.44;;;22.69;52.41
22283;BME280;11310;51.528;21.204;2024-02-16T12:11:24;100521.63;;;23.72;48.73
22283;BME280;11310;51.528;21.204;2024-02-16T12:13:53;100512.09;;;24.35;46.94
22283;BME280;11310;51.528;21.204;2024-02-16T12:16:25;100516.47;;;24.82;45.79
22283;BME280;11310;51.528;21.204;2024-02-16T12:19:05;100507.59;;;25.26;40.88
22283;BME280;11310;51.528;21.204;2024-02-16T12:21:35;100512.84;;;25.45;44.55
22283;BME280;11310;51.528;21.204;2024-02-16T12:24:09;100507.94;;;25.40;43.89
22283;BME280;11310;51.528;21.204;2024-02-16T12:26:40;100506.88;;;25.51;44.41
22283;BME280;11310;51.528;21.204;2024-02-16T12:29:11;100511.38;;;25.68;44.35
22283;BME280;11310;51.528;21.204;2024-02-16T12:31:44;100496.19;;;25.76;43.82
22283;BME280;11310;51.528;21.204;2024-02-16T12:34:17;100500.56;;;25.77;44.13
22283;BME280;11310;51.528;21.204;2024-02-16T12:36:46;100499.66;;;25.69;44.18
22283;BME280;11310;51.528;21.204;2024-02-16T12:39:18;100499.78;;;25.50;44.96
22283;BME280;11310;51.528;21.204;2024-02-16T12:41:51;100488.00;;;24.98;46.09
22283;BME280;11310;51.528;21.204;2024-02-16T12:44:33;100485.25;;;23.98;48.42
22283;BME280;11310;51.528;21.204;2024-02-16T12:47:18;100485.16;;;22.24;49.08
22283;BME280;11310;51.528;21.204;2024-02-16T12:49:51;100481.22;;;21.78;55.72
22283;BME280;11310;51.528;21.204;2024-02-16T12:52:28;100482.00;;;22.40;54.69
22283;BME280;11310;51.528;21.204;2024-02-16T12:54:58;100488.09;;;22.81;51.84
22283;BME280;11310;51.528;21.204;2024-02-16T12:57:35;100488.16;;;23.10;47.05
22283;BME280;11310;51.528;21.204;2024-02-16T13:00:09;100485.00;;;22.86;50.23
22283;BME280;11310;51.528;21.204;2024-02-16T13:02:43;100479.13;;;21.50;53.68
22283;BME280;11310;51.528;21.204;2024-02-16T13:05:16;100464.69;;;19.55;60.69